NCAR-RAP Real-Time Weather Data

Output produced by METARs form (06 May 2016  16:48 UTC)
found at http://weather.rap.ucar.edu/surface/
 
Conditions at: KLOU observed 06 May 2016  15:53 UTC
Temperature: 19.4°C (67°F)
Dewpoint: 5.0°C (41°F) [RH = 39%]
Pressure (altimeter): 30.03 inches Hg (1017.0 mb)
[Sea-level pressure: 1016.7 mb]
Winds: from the NW (320 degrees) at 8 MPH (7 knots; 3.6 m/s)
Visibility: 10 or more miles (16+ km)
Ceiling: at least 12,000 feet AGL
Clouds: sky clear below 12,000 feet AGL
Present Weather: no significant weather observed at this time
KLOU 061553Z 32007KT 280V340 10SM CLR 19/05 A3003 RMK AO2 SLP167 T01940050